createdAt,value
2022-10-21T00:00:31.017Z,60.00
2022-10-21T00:02:57.510Z,59.90
2022-10-21T00:05:23.936Z,59.90
2022-10-21T00:07:50.353Z,59.40
2022-10-21T00:10:16.769Z,60.00
2022-10-21T00:12:43.175Z,60.00
2022-10-21T00:15:09.618Z,59.90
2022-10-21T00:17:36.046Z,59.40
2022-10-21T00:20:02.460Z,59.90
2022-10-21T00:22:28.885Z,60.00
2022-10-21T00:24:55.319Z,59.90
2022-10-21T00:27:21.740Z,59.40
2022-10-21T00:29:48.173Z,59.90
2022-10-21T00:32:14.605Z,59.90
2022-10-21T00:34:41.025Z,59.90
2022-10-21T00:37:07.447Z,59.40
2022-10-21T00:39:33.859Z,59.40
2022-10-21T00:42:00.271Z,59.40
2022-10-21T00:44:26.710Z,59.40
2022-10-21T00:46:53.142Z,59.40
2022-10-21T00:49:19.561Z,59.30
2022-10-21T00:51:45.979Z,59.90
2022-10-21T00:54:12.398Z,60.00
2022-10-21T00:56:38.875Z,59.80
2022-10-21T00:59:05.338Z,59.40
2022-10-21T01:01:31.794Z,59.40
2022-10-21T01:03:58.269Z,59.90
2022-10-21T01:06:24.698Z,59.90
2022-10-21T01:08:51.181Z,59.40
2022-10-21T01:11:17.648Z,59.90
2022-10-21T01:13:44.081Z,59.90
2022-10-21T01:16:10.493Z,59.90
2022-10-21T01:18:36.911Z,59.40
2022-10-21T01:21:03.329Z,59.90
2022-10-21T01:23:29.756Z,59.90
2022-10-21T01:25:56.178Z,59.80
2022-10-21T01:28:22.596Z,59.30
2022-10-21T01:30:49.050Z,59.80
2022-10-21T01:33:15.500Z,59.80
2022-10-21T01:35:41.937Z,59.80
2022-10-21T01:38:08.353Z,59.30
2022-10-21T01:40:34.783Z,59.80
2022-10-21T01:43:01.201Z,59.80
2022-10-21T01:45:27.633Z,59.80
2022-10-21T01:47:54.065Z,59.30
2022-10-21T01:50:20.482Z,59.80
2022-10-21T01:52:46.921Z,59.80
2022-10-21T01:55:13.343Z,59.80
2022-10-21T01:57:39.775Z,59.30
2022-10-21T02:00:06.209Z,59.80
2022-10-21T02:02:32.659Z,59.80
2022-10-21T02:04:59.078Z,59.80
2022-10-21T02:07:25.509Z,59.30
2022-10-21T02:09:51.922Z,59.80
2022-10-21T02:12:18.357Z,59.80
2022-10-21T02:14:44.775Z,59.80
2022-10-21T02:17:11.205Z,59.30
2022-10-21T02:19:37.626Z,59.80
2022-10-21T02:22:04.048Z,59.70
2022-10-21T02:24:30.486Z,59.80
2022-10-21T02:26:56.905Z,59.10
2022-10-21T02:29:23.315Z,59.80
2022-10-21T02:31:49.734Z,59.80
2022-10-21T02:34:16.145Z,59.30
2022-10-21T02:36:42.572Z,59.70
2022-10-21T02:39:08.986Z,59.20
2022-10-21T02:41:35.441Z,59.80
2022-10-21T02:44:01.860Z,59.70
2022-10-21T02:46:28.283Z,59.80
2022-10-21T02:48:54.701Z,59.20
2022-10-21T02:51:21.138Z,59.70
2022-10-21T02:53:47.558Z,59.70
2022-10-21T02:56:14.000Z,59.70
2022-10-21T02:58:40.418Z,59.20
2022-10-21T03:01:06.902Z,59.70
2022-10-21T03:03:33.368Z,59.30
2022-10-21T03:05:59.804Z,59.20
2022-10-21T03:08:26.241Z,59.20
2022-10-21T03:10:53.526Z,59.10
2022-10-21T03:13:20.199Z,59.80
2022-10-21T03:15:46.623Z,59.70
2022-10-21T03:18:13.066Z,59.20
2022-10-21T03:20:39.489Z,59.80
2022-10-21T03:23:05.897Z,59.70
2022-10-21T03:25:35.461Z,59.70
2022-10-21T03:28:02.276Z,59.10
2022-10-21T03:30:28.717Z,60.40
2022-10-21T03:32:55.142Z,59.70
2022-10-21T03:35:21.573Z,59.20
2022-10-21T03:37:48.047Z,59.10
2022-10-21T03:40:14.504Z,59.70
2022-10-21T03:42:41.353Z,59.70
2022-10-21T03:45:08.124Z,59.60
2022-10-21T03:47:34.556Z,59.10
2022-10-21T03:50:00.995Z,59.70
2022-10-21T03:52:27.421Z,59.60
2022-10-21T03:54:53.849Z,59.70
2022-10-21T03:57:20.270Z,59.10
2022-10-21T03:59:46.724Z,59.70
2022-10-21T04:02:13.135Z,59.60
2022-10-21T04:04:39.565Z,59.70
2022-10-21T04:07:05.980Z,59.10
2022-10-21T04:09:32.424Z,59.20
2022-10-21T04:11:58.871Z,59.70
2022-10-21T04:14:25.288Z,59.60
2022-10-21T04:17:02.084Z,59.20
2022-10-21T04:19:28.999Z,59.80
2022-10-21T04:21:55.431Z,59.70
2022-10-21T04:24:21.857Z,59.70
2022-10-21T04:29:15.240Z,59.20
2022-10-21T04:31:41.714Z,59.80
2022-10-21T04:34:08.144Z,59.80
2022-10-21T04:36:34.583Z,59.70
2022-10-21T04:39:00.997Z,59.10
2022-10-21T04:41:27.412Z,59.60
2022-10-21T04:43:53.848Z,59.60
2022-10-21T04:46:20.289Z,59.50
2022-10-21T04:48:46.706Z,58.90
2022-10-21T04:51:13.145Z,59.70
2022-10-21T04:53:39.570Z,59.60
2022-10-21T04:56:06.016Z,59.60
2022-10-21T04:58:32.428Z,59.20
2022-10-21T05:00:58.958Z,60.30
2022-10-21T05:03:25.441Z,59.90
2022-10-21T05:05:51.869Z,60.00
2022-10-21T05:08:18.296Z,59.40
2022-10-21T05:10:44.703Z,60.10
2022-10-21T05:13:11.131Z,59.70
2022-10-21T05:15:37.560Z,59.50
2022-10-21T05:18:03.992Z,59.70
2022-10-21T05:20:30.412Z,59.80
2022-10-21T05:22:56.845Z,60.30
2022-10-21T05:25:23.966Z,60.30
2022-10-21T05:27:50.548Z,59.60
2022-10-21T05:30:17.026Z,60.10
2022-10-21T05:32:43.483Z,59.60
2022-10-21T05:35:09.894Z,60.20
2022-10-21T05:37:36.322Z,59.60
2022-10-21T05:40:02.750Z,60.20
2022-10-21T05:42:29.174Z,60.20
2022-10-21T05:44:55.629Z,60.30
2022-10-21T05:47:22.049Z,59.60
2022-10-21T05:49:48.489Z,60.10
2022-10-21T05:52:14.925Z,60.10
2022-10-21T05:54:41.355Z,60.10
2022-10-21T05:57:07.807Z,59.60
2022-10-21T05:59:34.237Z,60.10
2022-10-21T06:02:00.665Z,60.00
2022-10-21T06:04:27.091Z,60.00
2022-10-21T06:06:53.562Z,59.50
2022-10-21T06:09:20.045Z,60.10
2022-10-21T06:11:46.475Z,60.80
2022-10-21T06:14:12.887Z,60.10
2022-10-21T06:16:39.334Z,60.00
2022-10-21T06:19:05.794Z,59.40
2022-10-21T06:21:33.026Z,60.00
2022-10-21T06:23:59.459Z,59.40
2022-10-21T06:26:25.881Z,59.50
2022-10-21T06:28:52.319Z,59.50
2022-10-21T06:31:18.744Z,59.50
2022-10-21T06:33:45.205Z,59.50
2022-10-21T06:36:11.630Z,60.00
2022-10-21T06:38:38.050Z,59.40
2022-10-21T06:41:07.871Z,59.50
2022-10-21T06:43:37.081Z,59.90
2022-10-21T06:46:03.501Z,60.00
2022-10-21T06:48:29.921Z,59.50
2022-10-21T06:50:56.336Z,59.50
2022-10-21T06:53:22.759Z,59.50
2022-10-21T06:55:49.205Z,59.50
2022-10-21T06:58:15.626Z,59.50
2022-10-21T07:00:42.059Z,60.00
2022-10-21T07:03:08.474Z,60.00
2022-10-21T07:05:34.889Z,60.00
2022-10-21T07:08:01.322Z,59.50
2022-10-21T07:10:27.751Z,60.00
2022-10-21T07:12:54.173Z,60.00
2022-10-21T07:15:20.600Z,60.80
2022-10-21T07:17:47.035Z,59.50
2022-10-21T07:20:13.483Z,60.00
2022-10-21T07:22:39.899Z,60.00
2022-10-21T07:25:06.349Z,60.10
2022-10-21T07:27:32.786Z,59.50
2022-10-21T07:29:59.221Z,60.00
2022-10-21T07:32:25.639Z,60.10
2022-10-21T07:34:52.089Z,60.00
2022-10-21T07:37:18.513Z,59.50
2022-10-21T07:39:44.941Z,60.10
2022-10-21T07:42:11.382Z,60.00
2022-10-21T07:44:37.833Z,60.00
2022-10-21T07:47:04.271Z,59.50
2022-10-21T07:49:30.692Z,60.10
2022-10-21T07:51:57.139Z,60.00
2022-10-21T07:54:23.552Z,60.10
2022-10-21T07:56:49.999Z,59.50
2022-10-21T07:59:16.428Z,59.50
2022-10-21T08:01:42.914Z,60.00
2022-10-21T08:04:09.414Z,60.00
2022-10-21T08:06:35.832Z,60.00
2022-10-21T08:09:02.333Z,59.60
2022-10-21T08:11:28.783Z,60.00
2022-10-21T08:13:55.221Z,60.00
2022-10-21T08:16:21.671Z,60.10
2022-10-21T08:18:48.093Z,59.60
2022-10-21T08:21:14.520Z,60.00
2022-10-21T08:23:40.945Z,60.00
2022-10-21T08:26:07.369Z,59.50
2022-10-21T08:28:33.794Z,59.50
2022-10-21T08:31:00.218Z,60.00
2022-10-21T08:33:26.672Z,60.00
2022-10-21T08:35:53.099Z,60.00
2022-10-21T08:38:19.518Z,59.40
2022-10-21T08:40:45.931Z,60.00
2022-10-21T08:43:12.355Z,60.00
2022-10-21T08:45:38.802Z,60.00
2022-10-21T08:48:05.218Z,59.50
2022-10-21T08:50:31.632Z,60.10
2022-10-21T08:52:58.045Z,59.60
2022-10-21T08:55:24.471Z,60.20
2022-10-21T08:57:50.896Z,59.60
2022-10-21T09:00:17.338Z,60.10
2022-10-21T09:02:43.816Z,60.10
2022-10-21T09:05:10.284Z,60.00
2022-10-21T09:07:36.952Z,59.50
2022-10-21T09:10:03.604Z,60.10
2022-10-21T09:12:30.041Z,60.10
2022-10-21T09:14:56.471Z,60.20
2022-10-21T09:17:22.913Z,59.60
2022-10-21T09:19:49.344Z,60.20
2022-10-21T09:22:34.341Z,60.00
2022-10-21T09:25:01.922Z,60.10
2022-10-21T09:27:32.279Z,59.60
2022-10-21T09:30:10.676Z,60.00
2022-10-21T09:32:37.117Z,60.10
2022-10-21T09:35:03.537Z,60.00
2022-10-21T09:37:31.808Z,59.50
2022-10-21T09:40:01.174Z,60.10
2022-10-21T09:42:46.346Z,59.50
2022-10-21T09:45:13.629Z,60.00
2022-10-21T09:47:40.081Z,59.50
2022-10-21T09:50:07.913Z,60.00
2022-10-21T09:52:34.800Z,59.50
2022-10-21T09:55:01.227Z,59.50
2022-10-21T09:57:27.648Z,59.50
2022-10-21T09:59:54.085Z,59.60
2022-10-21T10:02:20.589Z,59.50
2022-10-21T10:04:47.042Z,60.10
2022-10-21T10:07:13.466Z,59.50
2022-10-21T10:09:39.881Z,60.00
2022-10-21T10:12:06.301Z,60.00
2022-10-21T10:14:32.741Z,60.00
2022-10-21T10:16:59.164Z,59.40
2022-10-21T10:19:25.659Z,60.00
2022-10-21T10:21:52.102Z,60.00
2022-10-21T10:24:18.543Z,60.00
2022-10-21T10:26:44.995Z,60.10
2022-10-21T10:29:11.436Z,59.60
2022-10-21T10:31:37.879Z,60.20
2022-10-21T10:34:04.313Z,60.30
2022-10-21T10:36:30.744Z,60.30
2022-10-21T10:38:57.184Z,59.70
2022-10-21T10:41:23.608Z,60.40
2022-10-21T10:43:50.044Z,60.50
2022-10-21T10:46:16.488Z,60.50
2022-10-21T10:48:42.923Z,60.00
2022-10-21T10:51:09.360Z,60.70
2022-10-21T10:53:35.801Z,60.90
2022-10-21T10:56:02.231Z,61.00
2022-10-21T10:58:29.011Z,60.20
2022-10-21T11:00:55.714Z,60.10
2022-10-21T11:03:25.972Z,60.90
2022-10-21T11:05:52.768Z,60.70
2022-10-21T11:08:19.191Z,60.20
2022-10-21T11:10:45.609Z,60.80
2022-10-21T11:13:12.037Z,60.80
2022-10-21T11:15:38.472Z,60.70
2022-10-21T11:18:23.083Z,60.30
2022-10-21T11:20:50.808Z,60.80
2022-10-21T11:23:17.268Z,60.80
2022-10-21T11:25:43.712Z,60.70
2022-10-21T11:28:10.133Z,60.00
2022-10-21T11:30:36.602Z,60.70
2022-10-21T11:33:03.018Z,60.70
2022-10-21T11:35:29.451Z,60.80
2022-10-21T11:37:55.872Z,60.00
2022-10-21T11:40:22.325Z,60.70
2022-10-21T11:42:48.741Z,60.70
2022-10-21T11:45:15.170Z,60.60
2022-10-21T11:47:41.599Z,60.00
2022-10-21T11:50:08.156Z,60.70
2022-10-21T11:52:34.627Z,60.60
2022-10-21T11:55:10.676Z,60.70
2022-10-21T11:57:37.478Z,59.90
2022-10-21T12:00:03.901Z,60.70
2022-10-21T12:02:30.469Z,60.60
2022-10-21T12:04:56.989Z,60.80
2022-10-21T12:07:23.400Z,59.90
2022-10-21T12:09:49.823Z,60.00
2022-10-21T12:12:16.246Z,60.60
2022-10-21T12:14:42.690Z,60.70
2022-10-21T12:17:09.123Z,60.10
2022-10-21T12:19:35.567Z,60.90
2022-10-21T12:22:02.011Z,61.10
2022-10-21T12:24:28.439Z,60.60
2022-10-21T12:26:54.906Z,60.10
2022-10-21T12:29:21.357Z,60.70
2022-10-21T12:31:47.772Z,60.40
2022-10-21T12:34:14.201Z,60.50
2022-10-21T12:36:40.620Z,60.30
2022-10-21T12:39:07.048Z,59.80
2022-10-21T12:41:33.477Z,60.50
2022-10-21T12:43:59.911Z,60.30
2022-10-21T12:46:26.347Z,60.40
2022-10-21T12:48:52.806Z,59.00
2022-10-21T12:51:19.253Z,60.40
2022-10-21T12:53:45.741Z,60.40
2022-10-21T12:56:12.167Z,60.50
2022-10-21T12:58:38.611Z,60.00
2022-10-21T13:01:05.170Z,60.50
2022-10-21T13:03:31.635Z,60.50
2022-10-21T13:05:58.060Z,60.60
2022-10-21T13:08:24.503Z,60.00
2022-10-21T13:10:50.921Z,61.00
2022-10-21T13:13:17.344Z,60.90
2022-10-21T13:15:43.773Z,60.90
2022-10-21T13:18:10.195Z,60.00
2022-10-21T13:20:36.625Z,60.90
2022-10-21T13:23:05.233Z,61.10
2022-10-21T13:25:32.516Z,61.00
2022-10-21T13:27:58.946Z,60.30
2022-10-21T13:30:25.373Z,60.20
2022-10-21T13:32:51.798Z,60.20
2022-10-21T13:35:18.232Z,60.20
2022-10-21T13:37:44.801Z,60.50
2022-10-21T13:40:11.283Z,61.20
2022-10-21T13:42:37.751Z,61.20
2022-10-21T13:45:04.180Z,61.30
2022-10-21T13:47:30.634Z,60.60
2022-10-21T13:49:57.065Z,60.70
2022-10-21T13:52:23.493Z,60.60
2022-10-21T13:54:49.925Z,61.30
2022-10-21T13:57:16.357Z,60.70
2022-10-21T13:59:42.793Z,61.20
2022-10-21T14:02:09.227Z,60.40
2022-10-21T14:04:35.647Z,61.10
2022-10-21T14:07:02.085Z,60.70
2022-10-21T14:09:28.511Z,60.50
2022-10-21T14:11:54.942Z,61.30
2022-10-21T14:14:21.443Z,60.70
2022-10-21T14:16:47.856Z,60.90
2022-10-21T14:19:14.305Z,60.80
2022-10-21T14:21:40.722Z,61.40
2022-10-21T14:24:07.166Z,60.90
2022-10-21T14:26:33.598Z,61.20
2022-10-21T14:29:00.021Z,60.90
2022-10-21T14:31:26.463Z,60.60
2022-10-21T14:33:52.887Z,60.60
2022-10-21T14:36:19.310Z,60.90
2022-10-21T14:38:45.744Z,60.70
2022-10-21T14:41:12.173Z,62.20
2022-10-21T14:43:38.603Z,60.90
2022-10-21T14:46:05.066Z,61.60
2022-10-21T14:48:31.496Z,61.00
2022-10-21T14:50:57.944Z,61.70
2022-10-21T14:53:24.398Z,61.60
2022-10-21T14:55:50.813Z,61.60
2022-10-21T14:58:17.336Z,60.80
2022-10-21T15:00:43.821Z,61.60
2022-10-21T15:03:10.311Z,61.50
2022-10-21T15:05:36.822Z,61.50
2022-10-21T15:08:03.280Z,60.80
2022-10-21T15:10:33.694Z,61.40
2022-10-21T15:13:00.300Z,61.50
2022-10-21T15:15:26.729Z,61.30
2022-10-21T15:17:53.150Z,60.60
2022-10-21T15:20:19.598Z,61.30
2022-10-21T15:22:46.016Z,61.30
2022-10-21T15:25:12.473Z,61.10
2022-10-21T15:27:42.137Z,60.60
2022-10-21T15:30:09.170Z,61.30
2022-10-21T15:32:35.640Z,61.20
2022-10-21T15:35:02.058Z,61.20
2022-10-21T15:37:28.682Z,60.60
2022-10-21T15:39:55.110Z,61.20
2022-10-21T15:42:21.553Z,61.30
2022-10-21T15:44:47.996Z,61.30
2022-10-21T15:47:14.448Z,60.50
2022-10-21T15:49:40.892Z,61.20
2022-10-21T15:52:07.325Z,61.10
2022-10-21T15:54:33.775Z,61.00
2022-10-21T15:57:00.201Z,60.40
2022-10-21T15:59:26.637Z,61.10
2022-10-21T16:01:53.165Z,61.10
2022-10-21T16:04:19.649Z,61.10
2022-10-21T16:06:46.095Z,61.10
2022-10-21T16:09:15.608Z,60.30
2022-10-21T16:11:54.944Z,60.40
2022-10-21T16:14:28.364Z,60.40
2022-10-21T16:16:57.901Z,60.30
2022-10-21T16:19:24.337Z,61.00
2022-10-21T16:21:50.822Z,61.80
2022-10-21T16:24:17.267Z,61.00
2022-10-21T16:26:43.697Z,60.90
2022-10-21T16:29:10.178Z,60.20
2022-10-21T16:31:36.638Z,60.90
2022-10-21T16:34:03.297Z,61.00
2022-10-21T16:36:29.713Z,60.90
2022-10-21T16:38:56.143Z,60.20
2022-10-21T16:41:22.591Z,61.00
2022-10-21T16:43:49.027Z,61.00
2022-10-21T16:46:15.458Z,60.90
2022-10-21T16:48:41.877Z,60.40
2022-10-21T16:51:08.302Z,61.10
2022-10-21T16:53:34.736Z,61.10
2022-10-21T16:56:01.162Z,61.10
2022-10-21T16:58:27.586Z,60.50
2022-10-21T17:00:54.030Z,61.10
2022-10-21T17:03:20.459Z,61.10
2022-10-21T17:05:46.885Z,61.20
2022-10-21T17:08:13.310Z,60.50
2022-10-21T17:10:39.726Z,61.20
2022-10-21T17:13:06.146Z,61.20
2022-10-21T17:15:32.562Z,61.10
2022-10-21T17:17:58.975Z,60.30
2022-10-21T17:20:25.390Z,61.10
2022-10-21T17:22:51.843Z,61.10
2022-10-21T17:25:18.297Z,61.20
2022-10-21T17:27:44.739Z,60.30
2022-10-21T17:30:11.181Z,61.10
2022-10-21T17:32:37.671Z,61.10
2022-10-21T17:35:04.132Z,61.10
2022-10-21T17:37:30.581Z,60.50
2022-10-21T17:39:56.991Z,61.30
2022-10-21T17:42:23.430Z,60.40
2022-10-21T17:44:49.837Z,61.20
2022-10-21T17:47:16.256Z,60.50
2022-10-21T17:49:42.702Z,61.10
2022-10-21T17:52:09.118Z,61.10
2022-10-21T17:54:36.428Z,61.10
2022-10-21T17:57:03.017Z,60.40
2022-10-21T17:59:29.436Z,64.40
2022-10-21T18:01:55.884Z,61.10
2022-10-21T18:04:22.313Z,61.10
2022-10-21T18:06:48.734Z,61.00
2022-10-21T18:09:15.289Z,60.40
2022-10-21T18:11:41.797Z,61.10
2022-10-21T18:14:08.239Z,61.10
2022-10-21T18:16:34.665Z,61.10
2022-10-21T18:19:02.924Z,60.40
2022-10-21T18:21:29.791Z,61.10
2022-10-21T18:23:56.218Z,61.00
2022-10-21T18:26:22.653Z,61.10
2022-10-21T18:28:49.113Z,60.40
2022-10-21T18:31:15.541Z,61.10
2022-10-21T18:33:41.990Z,61.00
2022-10-21T18:36:08.440Z,61.00
2022-10-21T18:38:34.863Z,60.20
2022-10-21T18:41:15.224Z,61.00
2022-10-21T18:43:45.756Z,60.80
2022-10-21T18:46:12.449Z,60.80
2022-10-21T18:48:38.887Z,60.10
2022-10-21T18:51:05.321Z,60.10
2022-10-21T18:53:31.774Z,60.30
2022-10-21T18:55:58.242Z,61.10
2022-10-21T18:58:24.724Z,60.20
2022-10-21T19:00:51.157Z,61.10
2022-10-21T19:03:17.594Z,61.10
2022-10-21T19:05:44.048Z,60.70
2022-10-21T19:08:10.529Z,60.20
2022-10-21T19:10:36.951Z,60.90
2022-10-21T19:13:03.359Z,60.90
2022-10-21T19:15:29.791Z,61.00
2022-10-21T19:17:56.231Z,60.40
2022-10-21T19:20:22.658Z,60.70
2022-10-21T19:22:49.081Z,61.00
2022-10-21T19:25:15.501Z,61.10
2022-10-21T19:27:42.176Z,60.40
2022-10-21T19:30:08.848Z,61.10
2022-10-21T19:32:35.293Z,61.00
2022-10-21T19:35:01.770Z,61.10
2022-10-21T19:37:28.189Z,60.40
2022-10-21T19:39:54.646Z,61.10
2022-10-21T19:42:21.071Z,61.20
2022-10-21T19:44:47.520Z,61.10
2022-10-21T19:47:13.953Z,60.60
2022-10-21T19:49:40.403Z,61.30
2022-10-21T19:52:06.845Z,61.30
2022-10-21T19:54:33.285Z,60.80
2022-10-21T19:56:59.806Z,60.60
2022-10-21T19:59:26.275Z,61.20
2022-10-21T20:01:52.723Z,61.40
2022-10-21T20:04:19.198Z,61.40
2022-10-21T20:06:45.640Z,61.30
2022-10-21T20:09:12.632Z,60.80
2022-10-21T20:11:39.207Z,60.70
2022-10-21T20:14:05.640Z,61.50
2022-10-21T20:16:32.093Z,61.30
2022-10-21T20:18:58.566Z,60.60
2022-10-21T20:21:24.985Z,61.30
2022-10-21T20:23:51.431Z,61.30
2022-10-21T20:26:17.859Z,60.80
2022-10-21T20:28:44.307Z,60.80
2022-10-21T20:31:10.739Z,61.30
2022-10-21T20:33:37.179Z,61.10
2022-10-21T20:36:03.623Z,60.50
2022-10-21T20:38:30.089Z,60.50
2022-10-21T20:40:56.520Z,60.60
2022-10-21T20:43:22.964Z,60.70
2022-10-21T20:45:49.422Z,60.50
2022-10-21T20:48:15.851Z,60.70
2022-10-21T20:50:42.304Z,61.30
2022-10-21T20:53:08.738Z,61.30
2022-10-21T20:55:35.167Z,61.30
2022-10-21T20:58:01.617Z,60.70
2022-10-21T21:00:28.042Z,60.70
2022-10-21T21:02:54.556Z,61.40
2022-10-21T21:05:21.007Z,61.40
2022-10-21T21:07:47.440Z,60.70
2022-10-21T21:10:13.909Z,61.50
2022-10-21T21:12:40.649Z,60.80
2022-10-21T21:15:07.299Z,61.50
2022-10-21T21:17:33.728Z,60.90
2022-10-21T21:20:00.159Z,61.60
2022-10-21T21:22:26.587Z,60.90
2022-10-21T21:24:53.009Z,61.60
2022-10-21T21:27:19.440Z,60.90
2022-10-21T21:29:45.903Z,61.70
2022-10-21T21:32:12.766Z,61.60
2022-10-21T21:34:39.209Z,61.70
2022-10-21T21:37:05.649Z,61.00
2022-10-21T21:39:32.084Z,61.60
2022-10-21T21:41:58.509Z,61.60
2022-10-21T21:44:24.953Z,61.50
2022-10-21T21:46:51.384Z,61.50
2022-10-21T21:49:17.842Z,60.80
2022-10-21T21:51:44.300Z,61.50
2022-10-21T21:54:10.722Z,60.80
2022-10-21T21:56:37.173Z,61.40
2022-10-21T21:59:03.730Z,60.80
2022-10-21T22:01:30.254Z,61.40
2022-10-21T22:03:56.739Z,61.50
2022-10-21T22:06:23.271Z,60.80
2022-10-21T22:08:49.918Z,60.80
2022-10-21T22:11:16.429Z,61.40
2022-10-21T22:13:42.886Z,61.40
2022-10-21T22:16:09.310Z,61.40
2022-10-21T22:18:35.764Z,60.80
2022-10-21T22:21:02.211Z,61.40
2022-10-21T22:23:28.651Z,61.40
2022-10-21T22:25:55.087Z,61.40
2022-10-21T22:28:21.515Z,60.80
2022-10-21T22:30:47.961Z,61.40
2022-10-21T22:33:14.398Z,60.60
2022-10-21T22:35:40.818Z,61.40
2022-10-21T22:38:07.233Z,60.70
2022-10-21T22:40:33.673Z,61.30
2022-10-21T22:43:00.102Z,61.20
2022-10-21T22:45:26.530Z,61.40
2022-10-21T22:47:52.968Z,60.60
2022-10-21T22:50:19.398Z,60.70
2022-10-21T22:52:45.827Z,61.30
2022-10-21T22:55:12.275Z,60.60
2022-10-21T22:57:38.724Z,60.60
2022-10-21T23:00:05.168Z,61.20
2022-10-21T23:02:31.616Z,60.60
2022-10-21T23:04:58.070Z,60.60
2022-10-21T23:07:24.505Z,60.60
2022-10-21T23:09:50.960Z,60.50
2022-10-21T23:12:17.400Z,60.60
2022-10-21T23:14:43.830Z,60.60
2022-10-21T23:17:10.249Z,60.60
2022-10-21T23:19:36.670Z,61.30
2022-10-21T23:22:03.094Z,60.70
2022-10-21T23:24:29.538Z,60.50
2022-10-21T23:26:59.121Z,60.60
2022-10-21T23:29:27.776Z,60.50
2022-10-21T23:31:54.220Z,61.20
2022-10-21T23:34:20.666Z,61.30
2022-10-21T23:36:47.114Z,60.50
2022-10-21T23:39:13.769Z,60.50
2022-10-21T23:41:40.191Z,60.50
2022-10-21T23:44:06.697Z,61.20
2022-10-21T23:46:33.129Z,61.20
2022-10-21T23:48:59.565Z,60.50
2022-10-21T23:51:26.013Z,61.10
2022-10-21T23:53:52.447Z,61.20
2022-10-21T23:56:18.883Z,61.10
2022-10-21T23:58:45.349Z,60.50
